Time;durP1;ratioP1;P1;durP2;ratioP2;P2;SDS_P1;SDS_P2;PMS_P1;PMS_P2;Temp;Humidity;BMP_temperature;BMP_pressure;BME280_temperature;BME280_humidity;BME280_pressure;Samples;Min_cycle;Max_cycle;Signal;HPM_P1;HPM_P2
2023/02/21 02:14:27;;;;;;;4.90;2.00;;;;;;;10.07;92.25;101057.63;4958014;28;20141;-48
2023/02/21 02:17:24;;;;;;;2.08;1.42;;;;;;;10.08;92.33;101062.00;4986813;28;20038;-47
2023/02/21 02:20:12;;;;;;;4.88;1.70;;;;;;;10.06;92.15;101053.22;4992160;28;20081;-47
2023/02/21 02:22:50;;;;;;;2.80;1.90;;;;;;;10.06;92.18;101058.75;4992297;28;20057;-47
2023/02/21 02:25:32;;;;;;;3.55;1.45;;;;;;;10.07;92.31;101057.63;4990788;28;20073;-47
2023/02/21 02:28:20;;;;;;;5.43;2.22;;;;;;;10.07;92.12;101052.09;4992219;28;20052;-47
2023/02/21 02:30:57;;;;;;;1.55;1.30;;;;;;;10.07;92.16;101051.25;4989773;28;20468;-47
2023/02/21 02:33:46;;;;;;;2.85;1.60;;;;;;;10.06;91.98;101047.69;4991855;28;20411;-46
2023/02/21 02:36:21;;;;;;;2.17;1.40;;;;;;;10.06;91.75;101042.16;4997149;28;20054;-47
2023/02/21 02:39:06;;;;;;;2.50;1.10;;;;;;;10.06;91.84;101046.91;4974634;28;20053;-50
2023/02/21 02:41:48;;;;;;;1.42;0.85;;;;;;;10.03;91.84;101040.06;4989924;28;20475;-47
2023/02/21 02:44:36;;;;;;;2.50;0.85;;;;;;;10.04;91.78;101036.16;4991536;28;20093;-47
2023/02/21 02:47:07;;;;;;;2.38;1.05;;;;;;;10.04;91.46;101032.56;4987027;28;20420;-47
2023/02/21 02:49:39;;;;;;;1.70;1.08;;;;;;;10.03;91.56;101036.50;4988939;28;20070;-46
2023/02/21 02:52:08;;;;;;;3.05;1.88;;;;;;;10.05;91.51;101029.47;4973939;28;20480;-51
2023/02/21 02:54:36;;;;;;;1.60;0.70;;;;;;;10.06;91.44;101024.75;4971011;28;20050;-47
2023/02/21 02:57:09;;;;;;;1.45;0.95;;;;;;;10.06;91.34;101024.75;4982846;28;20069;-46
2023/02/21 02:59:39;;;;;;;2.50;1.10;;;;;;;10.06;91.08;101019.22;4972006;28;20051;-49
2023/02/21 03:02:09;;;;;;;0.90;0.77;;;;;;;10.05;91.18;101012.88;5077785;23;20060;-46
2023/02/21 03:04:40;;;;;;;1.08;0.70;;;;;;;10.05;90.85;101026.72;4983491;28;20046;-47
2023/02/21 03:07:22;;;;;;;1.65;0.80;;;;;;;10.05;90.81;101018.41;4978862;28;20050;-46
2023/02/21 03:09:54;;;;;;;0.93;0.85;;;;;;;10.05;90.67;101015.66;4981864;28;20066;-49
2023/02/21 03:12:44;;;;;;;1.13;1.02;;;;;;;10.04;90.78;101011.25;4997179;28;20050;-46
2023/02/21 03:15:35;;;;;;;1.27;1.10;;;;;;;10.04;90.64;101008.47;4990129;28;20058;-46
2023/02/21 03:18:15;;;;;;;2.33;1.00;;;;;;;10.04;90.54;101011.25;4983430;28;20571;-47
2023/02/21 03:20:43;;;;;;;2.22;1.20;;;;;;;10.03;90.38;100998.59;4991159;28;20092;-49
2023/02/21 03:23:14;;;;;;;2.70;0.93;;;;;;;10.02;90.40;100996.94;4990494;28;20081;-49
2023/02/21 03:25:44;;;;;;;2.17;1.10;;;;;;;10.01;90.47;101000.84;4979822;28;20039;-46
2023/02/21 03:28:11;;;;;;;1.67;0.77;;;;;;;10.00;90.42;100999.25;4990594;28;20300;-46
2023/02/21 03:30:40;;;;;;;1.13;0.90;;;;;;;10.00;90.28;101001.19;4990851;28;20061;-47
2023/02/21 03:33:07;;;;;;;3.15;0.90;;;;;;;10.00;90.38;101004.78;4986452;28;20050;-48
2023/02/21 03:35:34;;;;;;;1.33;1.00;;;;;;;10.00;90.09;100999.25;5000151;28;20054;-47
2023/02/21 03:38:01;;;;;;;1.48;0.90;;;;;;;9.99;90.19;100989.31;4985119;28;20074;-46
2023/02/21 03:40:30;;;;;;;1.27;0.88;;;;;;;10.01;90.18;100986.22;4987786;28;20050;-47
2023/02/21 03:42:59;;;;;;;1.55;0.65;;;;;;;10.00;90.02;100982.66;4986247;28;20049;-50
2023/02/21 03:45:26;;;;;;;4.82;2.55;;;;;;;10.00;89.99;100982.66;4986037;28;20162;-47
2023/02/21 03:47:53;;;;;;;3.65;1.83;;;;;;;10.00;90.07;100984.59;4985320;28;20054;-48
2023/02/21 03:50:20;;;;;;;1.33;1.02;;;;;;;9.99;89.93;100977.44;4986038;28;20054;-48
2023/02/21 03:52:46;;;;;;;1.88;0.93;;;;;;;9.99;89.85;100981.03;4985167;28;20050;-47
2023/02/21 03:55:13;;;;;;;1.70;0.90;;;;;;;9.99;90.06;100974.69;4985329;28;20057;-51
2023/02/21 03:57:40;;;;;;;1.70;1.02;;;;;;;9.97;89.93;100969.50;4985026;28;20048;-50
2023/02/21 04:00:07;;;;;;;3.72;1.10;;;;;;;9.96;89.89;100970.63;4984956;28;20042;-48
2023/02/21 04:02:34;;;;;;;1.02;0.80;;;;;;;9.96;89.79;100962.31;4984210;28;20777;-47
2023/02/21 04:05:01;;;;;;;1.55;0.80;;;;;;;9.97;89.70;100963.16;4967179;28;20038;-48
2023/02/21 04:07:28;;;;;;;1.92;0.85;;;;;;;9.96;89.58;100956.78;4984367;28;20046;-53
2023/02/21 04:09:55;;;;;;;1.60;0.80;;;;;;;9.95;89.67;100952.44;4983031;28;20052;-47
2023/02/21 04:12:22;;;;;;;3.42;1.20;;;;;;;9.94;89.68;100947.22;4989069;28;20465;-47
2023/02/21 04:14:51;;;;;;;1.23;1.00;;;;;;;9.93;89.48;100949.16;4987840;28;20056;-50
2023/02/21 04:17:17;;;;;;;2.30;1.58;;;;;;;9.94;89.44;100955.50;4981341;28;20101;-46
2023/02/21 04:19:44;;;;;;;2.13;1.52;;;;;;;9.93;89.60;100943.63;4987138;28;20403;-46
2023/02/21 04:22:11;;;;;;;1.60;1.23;;;;;;;9.93;89.49;100940.09;4983884;28;20460;-48
2023/02/21 04:24:38;;;;;;;2.35;1.48;;;;;;;9.93;89.49;100934.56;4975881;28;20378;-46
2023/02/21 04:27:05;;;;;;;1.98;1.35;;;;;;;9.90;89.38;100933.25;4984502;28;20049;-46
2023/02/21 04:29:32;;;;;;;2.13;1.45;;;;;;;9.89;89.42;100931.63;4981245;28;20097;-46
2023/02/21 04:31:58;;;;;;;2.63;1.35;;;;;;;9.83;89.10;100930.22;4979394;28;20407;-46
2023/02/21 04:34:25;;;;;;;3.22;1.77;;;;;;;9.81;89.24;100929.75;4992799;28;20673;-46
2023/02/21 04:36:52;;;;;;;1.70;1.60;;;;;;;9.76;89.30;100907.81;4984986;28;20058;-48
2023/02/21 04:39:19;;;;;;;1.35;1.25;;;;;;;9.71;89.28;100908.84;4984150;28;20050;-46
2023/02/21 04:41:46;;;;;;;1.85;1.17;;;;;;;9.69;89.14;100913.88;4980746;28;20085;-46
2023/02/21 04:44:12;;;;;;;2.97;1.25;;;;;;;9.67;89.09;100907.88;4987211;28;20137;-46
2023/02/21 04:46:39;;;;;;;1.30;1.20;;;;;;;9.65;89.11;100910.16;4984720;28;20073;-46
2023/02/21 04:49:06;;;;;;;2.28;1.42;;;;;;;9.62;88.97;100921.06;4983917;28;20711;-46
2023/02/21 04:51:33;;;;;;;2.00;1.60;;;;;;;9.59;89.51;100916.22;4985445;28;20055;-46
2023/02/21 04:54:00;;;;;;;6.13;1.60;;;;;;;9.56;88.87;100912.16;4984018;28;20130;-47
2023/02/21 04:56:27;;;;;;;2.65;1.10;;;;;;;9.53;89.20;100910.06;4983152;28;20050;-52
2023/02/21 04:58:55;;;;;;;1.50;1.40;;;;;;;9.52;89.14;100907.66;4980926;28;20042;-52
2023/02/21 05:01:22;;;;;;;2.00;1.42;;;;;;;9.50;89.27;100896.94;4984158;28;20057;-46
2023/02/21 05:03:49;;;;;;;1.48;1.38;;;;;;;9.51;89.30;100903.25;4984308;28;20389;-50
2023/02/21 05:06:21;;;;;;;2.20;1.50;;;;;;;9.51;89.38;100898.53;4978301;28;20154;-46
2023/02/21 05:08:48;;;;;;;3.25;1.70;;;;;;;9.51;89.48;100908.78;4984455;28;20133;-47
2023/02/21 05:11:16;;;;;;;2.80;2.10;;;;;;;9.51;89.49;100909.59;4978356;28;20125;-46
2023/02/21 05:13:44;;;;;;;4.65;2.70;;;;;;;9.52;89.48;100896.59;4986323;28;20058;-50
2023/02/21 05:16:11;;;;;;;2.22;1.92;;;;;;;9.52;89.50;100900.16;4979360;28;20400;-46
2023/02/21 05:18:41;;;;;;;1.98;1.70;;;;;;;9.52;89.63;100896.59;4986310;28;20049;-48
2023/02/21 05:21:08;;;;;;;3.67;1.90;;;;;;;9.52;89.68;100900.16;4988750;28;20058;-47
2023/02/21 05:23:35;;;;;;;2.72;1.90;;;;;;;9.53;89.64;100892.69;4967933;28;20039;-48
2023/02/21 05:26:05;;;;;;;5.57;2.15;;;;;;;9.52;89.59;100897.41;4980020;28;20038;-46
2023/02/21 05:28:32;;;;;;;1.80;1.70;;;;;;;9.52;89.58;100889.13;4988943;28;20042;-46
2023/02/21 05:30:59;;;;;;;2.28;1.60;;;;;;;9.53;89.49;100889.94;4988689;28;20085;-46
2023/02/21 05:33:38;;;;;;;1.63;1.52;;;;;;;9.53;89.50;100887.94;4993144;28;20046;-46
2023/02/21 05:36:06;;;;;;;1.98;1.75;;;;;;;9.52;89.44;100894.66;4990955;28;20113;-46
2023/02/21 05:38:42;;;;;;;1.70;1.45;;;;;;;9.51;89.43;100887.47;4971411;28;20046;-46
2023/02/21 05:41:09;;;;;;;2.63;1.50;;;;;;;9.51;89.52;100878.38;4988556;28;20157;-46
2023/02/21 05:43:36;;;;;;;2.00;1.67;;;;;;;9.50;89.31;100880.34;4988469;28;20042;-46
2023/02/21 05:46:03;;;;;;;2.47;1.23;;;;;;;9.49;89.35;100883.44;4988823;28;20406;-46
2023/02/21 05:48:30;;;;;;;1.35;1.23;;;;;;;9.48;89.24;100887.34;4979789;28;20070;-46
2023/02/21 05:50:57;;;;;;;2.03;1.33;;;;;;;9.46;89.19;100873.88;4984077;28;20133;-46
2023/02/21 05:53:23;;;;;;;2.40;1.42;;;;;;;9.43;89.20;100868.19;4959551;28;20576;-46
2023/02/21 05:55:50;;;;;;;1.17;0.95;;;;;;;9.42;89.06;100872.94;4983661;28;20133;-46
2023/02/21 05:58:17;;;;;;;1.50;0.95;;;;;;;9.39;89.02;100861.72;4951048;28;20046;-46
2023/02/21 06:00:44;;;;;;;1.00;0.88;;;;;;;9.37;88.99;100869.53;4984570;28;20141;-47
2023/02/21 06:03:10;;;;;;;1.15;0.90;;;;;;;9.34;88.97;100865.50;4985782;28;20050;-50
2023/02/21 06:05:37;;;;;;;2.10;0.82;;;;;;;9.31;88.89;100865.34;4987496;28;20078;-46
2023/02/21 06:08:04;;;;;;;1.13;0.80;;;;;;;9.28;88.89;100861.28;4983658;28;20042;-46
2023/02/21 06:10:31;;;;;;;1.23;0.82;;;;;;;9.26;88.75;100857.25;4989943;28;20655;-47
2023/02/21 06:12:57;;;;;;;0.77;0.70;;;;;;;9.24;88.73;100859.53;4986492;28;20042;-46
2023/02/21 06:15:24;;;;;;;1.55;0.77;;;;;;;9.22;88.60;100850.75;4987727;28;20567;-46
2023/02/21 06:17:51;;;;;;;0.65;0.65;;;;;;;9.19;88.83;100855.00;4981051;28;20064;-46
2023/02/21 06:20:18;;;;;;;1.15;0.80;;;;;;;9.18;88.66;100854.22;4975476;28;20053;-50
2023/02/21 06:22:46;;;;;;;1.75;0.70;;;;;;;9.15;88.58;100857.63;4989297;28;20523;-46
2023/02/21 06:25:13;;;;;;;0.65;0.65;;;;;;;9.13;88.58;100859.13;4991773;28;20170;-47
2023/02/21 06:27:39;;;;;;;0.65;0.65;;;;;;;9.10;88.48;100849.53;4991443;28;20455;-47
2023/02/21 06:30:09;;;;;;;1.10;0.57;;;;;;;9.11;88.41;100844.81;4991656;28;20077;-47
2023/02/21 06:32:37;;;;;;;3.53;2.78;;;;;;;9.10;88.51;100843.19;4991643;28;20093;-48
2023/02/21 06:35:04;;;;;;;0.55;0.55;;;;;;;9.12;88.34;100844.50;5003245;28;20038;-46
2023/02/21 06:37:31;;;;;;;0.95;0.57;;;;;;;9.12;88.31;100844.50;4991520;28;20463;-47
2023/02/21 06:39:57;;;;;;;0.98;0.73;;;;;;;9.13;88.24;100843.31;4990104;28;20104;-47
2023/02/21 06:42:24;;;;;;;0.95;0.95;;;;;;;9.14;88.11;100844.97;4991524;28;20104;-46
2023/02/21 06:44:52;;;;;;;0.98;0.98;;;;;;;9.15;88.05;100846.59;4970358;28;20054;-47
2023/02/21 06:47:19;;;;;;;0.70;0.65;;;;;;;9.17;87.97;100844.28;4983923;28;20458;-46
2023/02/21 06:49:46;;;;;;;0.68;0.60;;;;;;;9.18;87.81;100848.69;4985566;28;20414;-46
2023/02/21 06:52:12;;;;;;;0.65;0.57;;;;;;;9.19;87.72;100847.53;4981162;28;20038;-46
2023/02/21 06:54:39;;;;;;;0.95;0.90;;;;;;;9.19;87.77;100846.72;4982492;28;20472;-47
2023/02/21 06:57:06;;;;;;;0.82;0.80;;;;;;;9.19;87.60;100843.94;4984594;28;20054;-47
2023/02/21 06:59:33;;;;;;;3.05;1.08;;;;;;;9.17;87.46;100844.28;4978396;28;20073;-46
2023/02/21 07:02:01;;;;;;;1.52;1.00;;;;;;;9.19;87.49;100847.53;4990846;28;20062;-46
2023/02/21 07:04:28;;;;;;;1.73;1.15;;;;;;;9.19;87.28;100830.94;4982576;28;20081;-46
2023/02/21 07:06:55;;;;;;;3.03;1.33;;;;;;;9.19;87.18;100838.41;4990924;28;20050;-50
2023/02/21 07:09:22;;;;;;;3.15;1.15;;;;;;;9.18;87.24;100847.88;4991187;28;20030;-46
2023/02/21 07:11:48;;;;;;;2.88;1.90;;;;;;;9.18;86.94;100837.63;5002598;28;20121;-48
2023/02/21 07:14:15;;;;;;;1.27;0.80;;;;;;;9.17;87.02;100838.78;4989031;28;20050;-46
2023/02/21 07:16:42;;;;;;;4.57;1.23;;;;;;;9.17;87.01;100827.72;4989203;28;20129;-46
2023/02/21 07:19:14;;;;;;;1.55;1.20;;;;;;;9.15;86.70;100827.25;4990859;28;20046;-47
2023/02/21 07:21:41;;;;;;;2.83;1.35;;;;;;;9.16;86.92;100833.56;4990680;28;20105;-46
2023/02/21 07:24:08;;;;;;;1.45;1.30;;;;;;;9.16;86.85;100831.63;4990442;28;20141;-47
2023/02/21 07:26:36;;;;;;;3.22;1.30;;;;;;;9.18;86.76;100845.94;4990343;28;20112;-47
2023/02/21 07:29:04;;;;;;;3.67;2.17;;;;;;;9.18;86.75;100828.53;4988432;28;20046;-47
2023/02/21 07:31:32;;;;;;;2.38;1.60;;;;;;;9.18;86.77;100836.81;4983418;28;20039;-47
2023/02/21 07:33:59;;;;;;;1.67;1.55;;;;;;;9.19;86.80;100833.72;4989303;28;20054;-46
2023/02/21 07:36:26;;;;;;;2.72;1.60;;;;;;;9.21;86.88;100829.81;4984238;28;20049;-52
2023/02/21 07:38:52;;;;;;;1.70;1.38;;;;;;;9.21;86.92;100827.88;4990199;28;20056;-47
2023/02/21 07:41:19;;;;;;;4.35;1.90;;;;;;;9.23;86.91;100833.06;4979910;28;20125;-47
2023/02/21 07:43:46;;;;;;;2.15;1.85;;;;;;;9.23;86.95;100827.53;4990198;28;20070;-52
2023/02/21 07:46:15;;;;;;;5.88;1.90;;;;;;;9.22;86.87;100831.41;4990423;28;20057;-46
2023/02/21 07:48:44;;;;;;;2.40;2.05;;;;;;;9.19;86.83;100828.19;4987918;28;20042;-46
2023/02/21 07:51:11;;;;;;;2.47;2.28;;;;;;;9.21;86.95;100827.06;4989698;28;20523;-48
2023/02/21 07:53:39;;;;;;;1.30;1.20;;;;;;;9.18;86.90;100823.81;4986654;28;20113;-46
2023/02/21 07:56:06;;;;;;;2.08;1.48;;;;;;;9.15;86.96;100821.72;4989826;28;20035;-46
2023/02/21 07:58:36;;;;;;;1.17;1.13;;;;;;;9.16;86.77;100834.38;4989906;28;20392;-46
2023/02/21 08:01:05;;;;;;;2.28;0.98;;;;;;;9.16;86.63;100837.13;4989742;28;20042;-46
2023/02/21 08:03:32;;;;;;;1.27;1.17;;;;;;;9.17;86.66;100822.19;4989372;28;20108;-46
2023/02/21 08:05:59;;;;;;;1.98;0.90;;;;;;;9.17;86.65;100827.72;4982591;28;20042;-49
2023/02/21 08:08:25;;;;;;;1.55;1.30;;;;;;;9.15;86.55;100829.19;4981029;28;20100;-48
2023/02/21 08:10:55;;;;;;;3.90;1.25;;;;;;;9.17;86.42;100826.91;4985873;28;20046;-49
2023/02/21 08:13:22;;;;;;;1.63;1.30;;;;;;;9.17;86.40;100827.72;4989317;28;20436;-46
2023/02/21 08:15:49;;;;;;;1.38;0.98;;;;;;;9.17;86.49;100813.91;4988696;28;20050;-49
2023/02/21 08:18:19;;;;;;;1.65;1.10;;;;;;;9.18;86.32;100826.59;4983451;28;20448;-50
2023/02/21 08:20:46;;;;;;;1.98;0.93;;;;;;;9.17;86.22;100827.72;4986810;28;20120;-50
2023/02/21 08:23:13;;;;;;;3.03;1.90;;;;;;;9.17;86.43;100827.72;4985254;28;20141;-47
2023/02/21 08:25:40;;;;;;;1.30;0.88;;;;;;;9.17;86.14;100826.91;4984634;28;20038;-49
2023/02/21 08:28:06;;;;;;;0.90;0.82;;;;;;;9.15;85.93;100830.00;4968582;28;20484;-47
2023/02/21 08:30:33;;;;;;;0.60;0.60;;;;;;;9.13;85.79;100814.91;4982620;28;20050;-46
2023/02/21 08:33:00;;;;;;;0.80;0.77;;;;;;;9.11;85.84;100818.00;4987122;28;20053;-48
2023/02/21 08:35:27;;;;;;;1.60;1.02;;;;;;;9.12;85.64;100808.59;4977175;28;20078;-47
2023/02/21 08:38:01;;;;;;;3.08;0.93;;;;;;;9.14;85.77;100811.00;4985846;28;20057;-47
2023/02/21 08:40:30;;;;;;;1.15;0.60;;;;;;;9.13;85.76;100807.41;4985511;28;20407;-47
2023/02/21 08:42:58;;;;;;;0.55;0.50;;;;;;;9.12;85.68;100814.09;4983036;28;20049;-52
2023/02/21 08:45:27;;;;;;;2.80;1.10;;;;;;;9.14;85.73;100816.53;4987086;28;20046;-45
2023/02/21 08:47:54;;;;;;;2.70;1.20;;;;;;;9.17;85.84;100818.63;4988821;28;20571;-46
2023/02/21 08:50:23;;;;;;;0.82;0.82;;;;;;;9.18;85.80;100818.31;4981066;28;20042;-45
2023/02/21 08:52:50;;;;;;;2.03;1.13;;;;;;;9.18;85.61;100807.25;4989605;28;20046;-46
2023/02/21 08:55:21;;;;;;;1.50;1.10;;;;;;;9.19;85.56;100817.13;4988176;28;20468;-46
2023/02/21 08:57:50;;;;;;;0.88;0.80;;;;;;;9.21;85.57;100811.31;4984943;28;20046;-46
2023/02/21 09:00:18;;;;;;;0.75;0.75;;;;;;;9.22;85.54;100812.09;4984747;28;20089;-46
2023/02/21 09:02:45;;;;;;;0.82;0.73;;;;;;;9.25;85.61;100816.94;4986882;28;20058;-46
2023/02/21 09:05:19;;;;;;;3.03;0.93;;;;;;;9.29;85.62;100806.84;4983287;28;20077;-45
2023/02/21 09:07:53;;;;;;;2.25;1.13;;;;;;;9.30;85.35;100808.47;4974713;28;20069;-46
2023/02/21 09:10:26;;;;;;;3.78;0.82;;;;;;;9.31;85.48;100801.81;4983503;28;20082;-51
2023/02/21 09:12:54;;;;;;;1.23;1.13;;;;;;;9.35;85.37;100805.50;4976974;28;20131;-49
2023/02/21 09:15:21;;;;;;;2.03;0.70;;;;;;;9.37;85.31;100798.50;4985259;28;20073;-45
2023/02/21 09:17:49;;;;;;;1.02;0.82;;;;;;;9.40;85.21;100799.81;4987925;28;20478;-46
2023/02/21 09:20:24;;;;;;;0.80;0.80;;;;;;;9.41;85.36;100804.97;4986517;28;20484;-45
2023/02/21 09:22:51;;;;;;;2.95;0.90;;;;;;;9.45;85.36;100799.59;4984196;28;20528;-45
2023/02/21 09:25:23;;;;;;;0.82;0.60;;;;;;;9.47;85.39;100791.78;4986531;28;20035;-46
2023/02/21 09:27:50;;;;;;;;;;;;;;;9.45;85.37;100803.16;4986822;28;20047;-45
2023/02/21 09:30:24;;;;;;;0.65;0.50;;;;;;;9.45;85.27;100805.13;4983621;28;19922;-46
2023/02/21 09:32:52;;;;;;;1.33;0.60;;;;;;;9.48;85.23;100798.91;4989233;28;20054;-51
2023/02/21 09:35:21;;;;;;;0.47;0.45;;;;;;;9.53;85.27;100795.97;4986857;28;20321;-47
2023/02/21 09:37:48;;;;;;;2.40;0.50;;;;;;;9.62;84.97;100796.69;4986148;28;20121;-51
2023/02/21 09:40:26;;;;;;;0.52;0.45;;;;;;;9.75;84.80;100799.19;4989546;28;20042;-45
2023/02/21 09:42:57;;;;;;;0.38;0.30;;;;;;;9.86;84.61;100791.28;4987699;28;20056;-48
2023/02/21 09:45:28;;;;;;;1.70;0.30;;;;;;;9.95;84.29;100797.56;4987553;28;20062;-47
2023/02/21 09:47:57;;;;;;;0.30;0.30;;;;;;;9.97;83.94;100783.38;4988643;28;20038;-45
2023/02/21 09:50:32;;;;;;;1.52;0.28;;;;;;;9.96;83.54;100779.78;4977951;28;20488;-49
2023/02/21 09:53:00;;;;;;;4.40;0.57;;;;;;;9.94;83.69;100779.34;4957316;28;20454;-48
2023/02/21 09:55:34;;;;;;;3.13;0.30;;;;;;;9.95;83.59;100775.44;4955884;28;20047;-46
2023/02/21 09:58:01;;;;;;;2.25;0.65;;;;;;;9.98;83.52;100777.47;4956462;28;20047;-50
2023/02/21 10:00:35;;;;;;;0.98;0.20;;;;;;;10.02;83.38;100770.13;4984239;28;20042;-46
2023/02/21 10:03:39;;;;;;;0.75;0.32;;;;;;;10.07;83.39;100771.88;4990299;28;20062;-46
2023/02/21 10:06:25;;;;;;;0.35;0.20;;;;;;;10.10;83.26;100768.44;4972074;28;20050;-48
2023/02/21 10:09:05;;;;;;;1.17;0.15;;;;;;;10.14;82.92;100767.44;4986562;28;20066;-46
2023/02/21 10:12:00;;;;;;;0.10;0.10;;;;;;;10.17;82.85;100755.69;4986702;28;20404;-46
2023/02/21 10:14:51;;;;;;;0.68;0.20;;;;;;;10.21;82.62;100762.16;4985889;28;20046;-46
2023/02/21 10:17:26;;;;;;;1.98;0.40;;;;;;;10.26;82.64;100752.81;4989345;28;20399;-45
2023/02/21 10:20:01;;;;;;;0.20;0.20;;;;;;;10.29;82.76;100750.19;4987768;28;20073;-45
2023/02/21 10:22:33;;;;;;;1.25;0.15;;;;;;;10.34;82.52;100744.44;4981320;28;20554;-45
2023/02/21 10:25:22;;;;;;;0.40;0.20;;;;;;;10.36;82.47;100747.66;4969998;28;20532;-47
2023/02/21 10:27:51;;;;;;;0.30;0.30;;;;;;;10.37;82.36;100737.41;4981519;28;20578;-46
2023/02/21 10:30:27;;;;;;;1.40;0.20;;;;;;;10.42;82.43;100741.91;4983266;28;20092;-46
2023/02/21 10:32:55;;;;;;;1.80;0.35;;;;;;;10.49;82.40;100744.91;4989844;28;20046;-46
2023/02/21 10:35:23;;;;;;;0.50;0.30;;;;;;;10.58;82.30;100742.84;4993275;28;20539;-46
2023/02/21 10:37:53;;;;;;;0.30;0.20;;;;;;;10.67;82.24;100749.09;4986848;28;20388;-45
2023/02/21 10:40:34;;;;;;;0.47;0.35;;;;;;;10.73;82.11;100734.66;4988688;28;20046;-46
2023/02/21 10:43:33;;;;;;;0.50;0.20;;;;;;;10.78;81.88;100739.94;4986232;28;20073;-45
2023/02/21 10:46:12;;;;;;;0.35;0.20;;;;;;;10.81;81.65;100735.69;4986698;28;20474;-45
2023/02/21 10:48:42;;;;;;;1.45;0.20;;;;;;;10.84;81.61;100730.28;4974447;28;20184;-47
2023/02/21 10:51:14;;;;;;;1.63;0.28;;;;;;;10.85;81.49;100731.06;4987118;28;20526;-47
2023/02/21 10:53:44;;;;;;;0.45;0.20;;;;;;;10.85;81.21;100731.91;4972274;28;20078;-45
2023/02/21 10:56:13;;;;;;;0.28;0.28;;;;;;;10.85;81.22;100720.00;4984378;28;20053;-46
2023/02/21 10:58:53;;;;;;;0.68;0.50;;;;;;;10.90;81.41;100720.56;4986000;28;20165;-46
2023/02/21 11:01:25;;;;;;;1.58;0.50;;;;;;;10.94;81.27;100721.47;4981654;28;20081;-49
2023/02/21 11:04:04;;;;;;;0.50;0.50;;;;;;;11.01;81.27;100715.38;4988061;28;20046;-46
2023/02/21 11:06:32;;;;;;;1.85;0.20;;;;;;;11.06;81.16;100712.34;4987945;28;20050;-45
2023/02/21 11:09:00;;;;;;;0.40;0.20;;;;;;;11.13;80.98;100714.53;4986325;28;20044;-46
2023/02/21 11:11:39;;;;;;;0.32;0.30;;;;;;;11.19;80.89;100708.41;4989313;28;20038;-46
2023/02/21 11:14:24;;;;;;;0.52;0.13;;;;;;;11.23;80.66;100714.03;4984753;28;20049;-45
2023/02/21 11:17:05;;;;;;;0.20;0.20;;;;;;;11.19;80.51;100702.84;4967588;28;20039;-46
2023/02/21 11:19:47;;;;;;;0.13;0.13;;;;;;;11.17;80.31;100707.13;4990629;28;20398;-45
2023/02/21 11:22:18;;;;;;;1.02;0.20;;;;;;;11.14;80.13;100705.06;4988373;28;20078;-46
2023/02/21 11:24:51;;;;;;;0.40;0.20;;;;;;;11.13;80.11;100698.72;4984691;28;20493;-52
2023/02/21 11:27:17;;;;;;;1.02;0.38;;;;;;;11.13;80.20;100682.09;4949421;28;20196;-47
2023/02/21 11:29:48;;;;;;;2.28;0.40;;;;;;;11.20;80.08;100682.28;4956720;28;20074;-50
2023/02/21 11:32:29;;;;;;;1.00;0.10;;;;;;;11.28;80.04;100684.09;4937914;28;20890;-50
2023/02/21 11:35:20;;;;;;;0.32;0.30;;;;;;;11.31;79.69;100677.06;4954875;28;21351;-46
2023/02/21 11:37:56;;;;;;;2.45;0.30;;;;;;;11.41;79.74;100682.13;4944394;28;20046;-51
2023/02/21 11:40:31;;;;;;;0.98;0.25;;;;;;;11.52;79.58;100683.22;4955031;28;20061;-49
2023/02/21 11:43:18;;;;;;;0.85;0.40;;;;;;;11.65;79.43;100672.91;4953375;28;20054;-47
2023/02/21 11:45:58;;;;;;;1.33;0.88;;;;;;;11.66;79.37;100677.25;4960042;28;20054;-43
2023/02/21 11:48:31;;;;;;;3.20;0.60;;;;;;;11.59;79.21;100667.59;4978306;28;20035;-47
2023/02/21 11:51:06;;;;;;;1.35;0.52;;;;;;;11.51;79.20;100663.03;4988918;28;20101;-46
2023/02/21 11:53:42;;;;;;;0.65;0.30;;;;;;;11.45;79.15;100656.09;4988160;28;20475;-46
2023/02/21 11:56:29;;;;;;;0.20;0.10;;;;;;;11.42;79.01;100656.81;4982552;28;20050;-45
2023/02/21 11:59:00;;;;;;;1.23;0.28;;;;;;;11.40;78.95;100658.31;4981003;28;20047;-46
2023/02/21 12:01:49;;;;;;;0.10;0.10;;;;;;;11.40;79.03;100653.59;4989190;28;20118;-46
2023/02/21 12:04:31;;;;;;;2.40;0.30;;;;;;;11.40;78.62;100648.06;4975712;28;20050;-47
2023/02/21 12:07:15;;;;;;;0.05;0.05;;;;;;;11.42;79.04;100656.81;4985801;28;20073;-47
2023/02/21 12:10:00;;;;;;;1.10;0.20;;;;;;;11.44;79.19;100653.66;4983724;28;20448;-51
2023/02/21 12:13:13;;;;;;;0.75;0.20;;;;;;;11.38;78.93;100639.28;4987282;28;20559;-46
2023/02/21 12:16:10;;;;;;;1.75;0.30;;;;;;;11.36;79.14;100636.03;4903040;29;20542;-46
2023/02/21 12:18:49;;;;;;;0.40;0.38;;;;;;;11.32;78.83;100629.59;4985509;28;20050;-47
2023/02/21 12:21:37;;;;;;;1.38;1.25;;;;;;;11.29;78.51;100633.06;4980182;28;20592;-46
2023/02/21 12:24:13;;;;;;;0.15;0.10;;;;;;;11.29;78.82;100619.22;4981838;28;20458;-47
2023/02/21 12:27:02;;;;;;;0.52;0.20;;;;;;;11.32;78.70;100612.97;4984504;28;20404;-46
2023/02/21 12:29:54;;;;;;;1.90;0.30;;;;;;;11.33;78.83;100620.09;4986642;28;20054;-45
2023/02/21 12:32:39;;;;;;;0.43;0.30;;;;;;;11.38;78.62;100619.88;4981451;28;20096;-46
2023/02/21 12:35:30;;;;;;;0.68;0.30;;;;;;;11.43;78.41;100603.00;4986298;28;20496;-47
2023/02/21 12:38:03;;;;;;;0.60;0.60;;;;;;;11.48;78.39;100605.50;4980090;28;20153;-46
2023/02/21 12:40:56;;;;;;;0.85;0.10;;;;;;;11.54;78.25;100598.53;4982433;28;20046;-53
2023/02/21 12:43:50;;;;;;;0.20;0.20;;;;;;;11.61;78.07;100597.91;4983955;28;20086;-49
2023/02/21 12:46:42;;;;;;;0.30;0.30;;;;;;;11.68;78.05;100598.09;4984670;28;20046;-50
2023/02/21 12:49:18;;;;;;;0.32;0.20;;;;;;;11.73;77.89;100599.84;4965298;28;20496;-45
2023/02/21 12:51:55;;;;;;;0.85;0.20;;;;;;;11.74;77.72;100596.72;4987561;28;20042;-46
2023/02/21 12:54:54;;;;;;;0.20;0.10;;;;;;;11.77;77.64;100584.91;4979598;28;20073;-41
2023/02/21 12:57:29;;;;;;;22.13;3.53;;;;;;;11.81;77.88;100583.00;4984919;28;20455;-48
2023/02/21 13:00:16;;;;;;;10.32;2.10;;;;;;;11.84;77.49;100568.44;4988531;28;20089;-47
2023/02/21 13:02:49;;;;;;;0.77;0.28;;;;;;;11.89;77.52;100573.72;4987852;28;20051;-48
2023/02/21 13:05:22;;;;;;;3.38;0.73;;;;;;;11.96;77.23;100571.13;4981801;28;20050;-47
2023/02/21 13:07:59;;;;;;;2.42;0.30;;;;;;;12.03;77.29;100571.31;4970191;28;20047;-46
2023/02/21 13:10:33;;;;;;;1.98;0.40;;;;;;;12.10;77.05;100570.66;4983097;28;20448;-47
2023/02/21 13:13:13;;;;;;;0.77;0.30;;;;;;;12.15;76.83;100562.09;4983712;28;20078;-48
2023/02/21 13:15:44;;;;;;;1.35;0.55;;;;;;;12.25;76.75;100550.41;4988997;28;20139;-45
2023/02/21 13:18:18;;;;;;;1.65;0.52;;;;;;;12.37;76.79;100550.28;4992319;28;20077;-48
2023/02/21 13:20:55;;;;;;;2.80;0.95;;;;;;;12.50;76.79;100534.31;4979248;28;20189;-48
2023/02/21 13:23:23;;;;;;;1.25;0.60;;;;;;;12.55;76.35;100542.38;4989346;28;20081;-47
2023/02/21 13:26:03;;;;;;;0.50;0.40;;;;;;;12.57;76.08;100540.84;4986863;28;20117;-49
2023/02/21 13:28:35;;;;;;;0.60;0.40;;;;;;;12.60;75.69;100540.09;4985458;28;20049;-50
2023/02/21 13:31:05;;;;;;;1.17;0.28;;;;;;;12.67;75.91;100534.72;4989617;28;20125;-46
2023/02/21 13:33:44;;;;;;;0.20;0.20;;;;;;;12.73;75.73;100527.69;4994982;28;20404;-47
2023/02/21 13:36:38;;;;;;;2.65;0.35;;;;;;;12.79;75.49;100529.00;4963260;28;20850;-49
2023/02/21 13:39:09;;;;;;;0.30;0.30;;;;;;;12.91;75.49;100521.69;4988752;28;20417;-46
2023/02/21 13:41:51;;;;;;;0.68;0.30;;;;;;;13.02;75.23;100525.50;4990613;28;20164;-46
2023/02/21 13:44:32;;;;;;;0.30;0.10;;;;;;;13.10;74.99;100519.75;4973154;28;20459;-46
2023/02/21 13:47:09;;;;;;;0.35;0.20;;;;;;;13.15;74.78;100511.13;4989642;28;20078;-46
2023/02/21 13:49:49;;;;;;;0.90;0.30;;;;;;;13.26;74.59;100498.19;4984419;28;20868;-47
2023/02/21 13:52:22;;;;;;;0.25;0.25;;;;;;;13.35;74.28;100495.19;4989202;28;20054;-48
2023/02/21 13:55:09;;;;;;;1.70;0.30;;;;;;;13.45;73.92;100508.47;4978802;28;20045;-46
2023/02/21 13:57:38;;;;;;;2.40;0.38;;;;;;;13.54;73.66;100497.09;4984125;28;20137;-46
2023/02/21 14:00:37;;;;;;;1.60;0.40;;;;;;;13.67;73.64;100499.34;4990034;28;20042;-47
2023/02/21 14:03:16;;;;;;;0.98;0.47;;;;;;;13.76;73.33;100491.53;4946073;28;20070;-50
2023/02/21 14:05:46;;;;;;;0.65;0.47;;;;;;;13.88;73.31;100494.13;4990589;28;20089;-50
2023/02/21 14:08:18;;;;;;;1.95;0.43;;;;;;;13.92;73.14;100495.00;4988303;28;20046;-48